Terminal Aerodrome Forecast
Issued by NWS Portland, OR

Home | Current Version | Previous Version | Text Only | Print | Product List | Glossary On
Versions: 1 2 3 4 5 6 7 8 9 10 11 12 13 14 15 16 17 18 19 20 21 22 23 24
901
FTUS46 KPQR 311736
TAFEUG
TAF
KEUG 311736Z 3118/0118 35008KT P6SM SCT250
     FM312100 01011KT P6SM SCT250
     FM010500 35004KT P6SM SCT250=

USA.gov is the U.S. government's official web portal to all federal, state and local government web resources and services.